Maldives Meteorological Service

TAFS

Station TAF
VRMM
VRMM 172300Z 1800/1906 27014KT 9999 FEW018 TEMPO 1800/1806 5000 -SHRA FEW017CB=
VRMH
VRMH 172300Z 1800/1824 28010KT 9999 FEW018 TEMPO 1800/1806 FEW018CB=
VRMK
VRMK 172300Z 1800/1824 27011KT 9999 FEW018 TEMPO 1800/1806 5000 –TSRA SCT017 FEW018CB=
VRMT
VRMT 172300Z 1800/1824 29010KT 9999 FEW018TCU TEMPO 1800/1806 4000 TSRA SCT016 FEW017CB=
VRMG
VRMG 172300Z 1800/1906 28012KT 9000 -RA SCT017TCU TEMPO 1800/1806 4000 TSRA SCT016CB BKN100=